createdAt,value
2023-12-14T00:00:04.552Z,13.88
2023-12-14T00:05:00.937Z,11.32
2023-12-14T00:09:57.398Z,16.00
2023-12-14T00:14:53.784Z,12.02
2023-12-14T00:19:50.299Z,11.52
2023-12-14T00:24:46.832Z,13.98
2023-12-14T00:29:43.180Z,12.85
2023-12-14T00:34:39.754Z,12.73
2023-12-14T00:39:36.260Z,14.73
2023-12-14T00:44:32.659Z,10.38
2023-12-14T00:49:29.580Z,8.68
2023-12-14T00:54:26.021Z,9.73
2023-12-14T00:59:22.513Z,11.32
2023-12-14T01:04:18.905Z,11.45
2023-12-14T01:09:15.282Z,9.45
2023-12-14T01:14:12.441Z,9.70
2023-12-14T01:19:09.084Z,11.65
2023-12-14T01:24:05.933Z,9.05
2023-12-14T01:29:02.476Z,9.63
2023-12-14T01:33:58.903Z,9.85
2023-12-14T01:38:55.324Z,9.63
2023-12-14T01:43:51.774Z,8.30
2023-12-14T01:48:48.374Z,8.82
2023-12-14T01:53:44.785Z,11.63
2023-12-14T01:58:41.189Z,8.40
2023-12-14T02:03:45.155Z,11.02
2023-12-14T02:08:41.602Z,7.20
2023-12-14T02:13:37.994Z,8.25
2023-12-14T02:18:34.478Z,6.25
2023-12-14T02:23:31.480Z,7.40
2023-12-14T02:28:27.834Z,10.05
2023-12-14T02:33:24.182Z,6.13
2023-12-14T02:38:20.588Z,6.30
2023-12-14T02:43:17.324Z,6.38
2023-12-14T02:48:13.851Z,6.93
2023-12-14T02:53:10.362Z,7.95
2023-12-14T02:58:06.945Z,6.80
2023-12-14T03:03:03.383Z,8.48
2023-12-14T03:07:59.815Z,9.23
2023-12-14T03:12:56.656Z,8.48
2023-12-14T03:17:53.061Z,7.45
2023-12-14T03:22:49.488Z,7.93
2023-12-14T03:27:45.974Z,9.00
2023-12-14T03:32:43.405Z,8.82
2023-12-14T03:37:39.873Z,8.15
2023-12-14T03:42:36.872Z,12.20
2023-12-14T03:47:33.364Z,10.35
2023-12-14T03:52:32.485Z,10.30
2023-12-14T03:57:29.657Z,18.17
2023-12-14T04:02:26.081Z,9.43
2023-12-14T04:07:22.718Z,10.77
2023-12-14T04:12:19.134Z,13.05
2023-12-14T04:17:15.950Z,14.13
2023-12-14T04:22:12.437Z,12.52
2023-12-14T04:27:08.794Z,9.63
2023-12-14T04:32:06.115Z,12.10
2023-12-14T04:37:02.798Z,12.80
2023-12-14T04:41:59.183Z,11.88
2023-12-14T04:46:55.643Z,13.02
2023-12-14T04:51:52.141Z,12.68
2023-12-14T04:56:48.683Z,16.42
2023-12-14T05:01:45.611Z,14.75
2023-12-14T05:06:42.318Z,14.32
2023-12-14T05:11:40.762Z,14.23
2023-12-14T05:16:37.286Z,17.77
2023-12-14T05:21:33.658Z,20.90
2023-12-14T05:26:30.033Z,14.27
2023-12-14T05:31:26.398Z,18.02
2023-12-14T05:36:22.805Z,17.85
2023-12-14T05:41:19.263Z,17.05
2023-12-14T05:46:23.121Z,21.45
2023-12-14T05:51:32.840Z,14.70
2023-12-14T05:56:29.320Z,13.57
2023-12-14T06:01:25.961Z,9.20
2023-12-14T06:06:23.117Z,9.57
2023-12-14T06:11:20.922Z,11.20
2023-12-14T06:16:17.391Z,10.97
2023-12-14T06:21:14.713Z,14.23
2023-12-14T06:26:11.169Z,10.68
2023-12-14T06:31:13.433Z,12.05
2023-12-14T06:36:10.044Z,14.23
2023-12-14T06:41:06.781Z,12.15
2023-12-14T06:46:03.228Z,11.38
2023-12-14T06:50:59.625Z,12.48
2023-12-14T06:55:55.980Z,9.27
2023-12-14T07:00:52.399Z,9.82
2023-12-14T07:05:48.788Z,10.02
2023-12-14T07:10:45.743Z,9.80
2023-12-14T07:15:42.219Z,9.80
2023-12-14T07:20:39.307Z,10.00
2023-12-14T07:25:35.794Z,12.90
2023-12-14T07:30:32.187Z,9.95
2023-12-14T07:35:28.525Z,10.00
2023-12-14T07:40:24.921Z,10.43
2023-12-14T07:45:21.366Z,10.10
2023-12-14T07:50:18.170Z,10.88
2023-12-14T07:55:15.081Z,9.18
2023-12-14T08:00:12.010Z,9.13
2023-12-14T08:05:09.348Z,10.13
2023-12-14T08:10:06.011Z,14.55
2023-12-14T08:15:02.537Z,10.45
2023-12-14T08:19:58.911Z,13.02
2023-12-14T08:24:55.335Z,9.13
2023-12-14T08:29:51.743Z,10.73
2023-12-14T08:34:48.627Z,9.23
2023-12-14T08:39:44.990Z,10.40
2023-12-14T08:44:41.691Z,11.65
2023-12-14T08:49:38.108Z,11.13
2023-12-14T08:54:34.489Z,9.13
2023-12-14T08:59:31.340Z,11.20
2023-12-14T09:04:27.748Z,11.27
2023-12-14T09:09:24.103Z,13.02
2023-12-14T09:14:21.608Z,14.20
2023-12-14T09:19:20.106Z,12.63
2023-12-14T09:24:16.850Z,11.45
2023-12-14T09:29:13.649Z,13.13
2023-12-14T09:34:13.201Z,10.10
2023-12-14T09:39:12.846Z,12.52
2023-12-14T09:44:09.824Z,9.95
2023-12-14T09:49:08.831Z,10.18
2023-12-14T09:54:06.020Z,12.13
2023-12-14T09:59:03.667Z,11.20
2023-12-14T10:04:26.483Z,11.38
2023-12-14T10:09:25.771Z,11.18
2023-12-14T10:14:25.919Z,11.73
2023-12-14T10:19:22.590Z,12.75
2023-12-14T10:24:20.794Z,9.57
2023-12-14T10:29:17.448Z,10.52
2023-12-14T10:34:14.593Z,12.45
2023-12-14T10:39:15.270Z,9.45
2023-12-14T10:44:25.416Z,8.73
2023-12-14T10:49:30.048Z,8.85
2023-12-14T10:54:27.852Z,10.85
2023-12-14T10:59:27.493Z,9.23
2023-12-14T11:04:24.369Z,12.73
2023-12-14T11:09:23.717Z,9.05
2023-12-14T11:14:21.918Z,7.63
2023-12-14T11:19:26.407Z,7.93
2023-12-14T11:24:23.580Z,8.30
2023-12-14T11:29:20.628Z,7.43
2023-12-14T11:34:18.265Z,9.00
2023-12-14T11:39:15.789Z,7.30
2023-12-14T11:44:23.664Z,7.93
2023-12-14T11:49:20.267Z,7.80
2023-12-14T11:54:16.945Z,6.70
2023-12-14T11:59:13.633Z,4.90
2023-12-14T12:04:11.633Z,7.30
2023-12-14T12:09:11.681Z,6.63
2023-12-14T12:14:08.249Z,10.82
2023-12-14T12:19:04.973Z,6.18
2023-12-14T12:24:01.931Z,6.82
2023-12-14T12:28:59.233Z,5.80
2023-12-14T12:33:55.729Z,5.55
2023-12-14T12:38:52.281Z,5.13
2023-12-14T12:43:48.709Z,6.60
2023-12-14T12:48:45.455Z,6.07
2023-12-14T12:53:41.881Z,4.18
2023-12-14T12:58:38.361Z,4.30
2023-12-14T13:03:35.043Z,4.70
2023-12-14T13:08:31.991Z,6.70
2023-12-14T13:13:28.516Z,3.78
2023-12-14T13:18:24.988Z,6.28
2023-12-14T13:23:21.553Z,6.07
2023-12-14T13:28:18.322Z,3.88
2023-12-14T13:33:14.889Z,9.73
2023-12-14T13:38:11.349Z,3.92
2023-12-14T13:43:12.440Z,4.93
2023-12-14T13:48:09.286Z,9.60
2023-12-14T13:53:05.937Z,4.03
2023-12-14T13:58:03.269Z,5.10
2023-12-14T14:02:59.787Z,3.83
2023-12-14T14:07:56.824Z,5.35
2023-12-14T14:12:53.963Z,5.28
2023-12-14T14:17:53.228Z,5.13
2023-12-14T14:22:50.057Z,7.63
2023-12-14T14:27:48.051Z,7.13
2023-12-14T14:32:44.663Z,4.30
2023-12-14T14:37:46.959Z,5.18
2023-12-14T14:42:45.057Z,6.60
2023-12-14T14:47:42.733Z,6.20
2023-12-14T14:52:39.627Z,6.50
2023-12-14T14:57:36.392Z,7.72
2023-12-14T15:02:32.965Z,7.75
2023-12-14T15:07:31.406Z,6.68
2023-12-14T15:12:27.809Z,9.63
2023-12-14T15:17:24.634Z,9.65
2023-12-14T15:22:21.196Z,7.30
2023-12-14T15:27:17.644Z,10.60
2023-12-14T15:32:15.824Z,10.40
2023-12-14T15:37:12.556Z,12.75
2023-12-14T15:42:08.920Z,21.30
2023-12-14T15:47:05.834Z,11.52
2023-12-14T15:52:02.295Z,13.35
2023-12-14T15:56:59.764Z,15.65
2023-12-14T16:01:56.208Z,15.02
2023-12-14T16:06:52.751Z,15.63
2023-12-14T16:11:49.136Z,17.90
2023-12-14T16:16:45.621Z,20.45
2023-12-14T16:21:42.000Z,18.63
2023-12-14T16:26:43.001Z,18.60
2023-12-14T16:31:43.397Z,18.38
2023-12-14T16:36:39.885Z,26.17
2023-12-14T16:41:36.252Z,19.58
2023-12-14T16:46:32.838Z,21.70
2023-12-14T16:51:29.406Z,21.70
2023-12-14T16:56:30.997Z,25.90
2023-12-14T17:01:27.672Z,22.55
2023-12-14T17:06:24.199Z,22.85
2023-12-14T17:11:22.157Z,22.27
2023-12-14T17:16:20.398Z,22.63
2023-12-14T17:21:21.648Z,28.02
2023-12-14T17:26:18.514Z,26.85
2023-12-14T17:31:16.705Z,23.30
2023-12-14T17:36:13.344Z,25.42
2023-12-14T17:41:11.579Z,30.10
2023-12-14T17:46:08.349Z,25.40
2023-12-14T17:51:04.938Z,29.88
2023-12-14T17:56:01.400Z,28.90
2023-12-14T18:00:58.158Z,26.52
2023-12-14T18:05:54.609Z,28.90
2023-12-14T18:10:51.097Z,24.90
2023-12-14T18:15:47.490Z,30.75
2023-12-14T18:20:43.899Z,31.25
2023-12-14T18:25:40.761Z,30.33
2023-12-14T18:30:37.290Z,31.92
2023-12-14T18:35:33.867Z,25.98
2023-12-14T18:40:30.763Z,35.30
2023-12-14T18:45:27.202Z,36.50
2023-12-14T18:50:23.671Z,36.17
2023-12-14T18:55:20.092Z,28.83
2023-12-14T19:00:16.926Z,29.70
2023-12-14T19:05:14.462Z,36.03
2023-12-14T19:10:11.207Z,27.00
2023-12-14T19:15:09.979Z,29.95
2023-12-14T19:25:10.978Z,30.20
2023-12-14T19:30:10.294Z,31.15
2023-12-14T19:35:07.021Z,32.35
2023-12-14T19:40:04.788Z,36.58
2023-12-14T19:45:01.299Z,29.73
2023-12-14T19:50:00.757Z,34.50
2023-12-14T19:54:58.636Z,34.65
2023-12-14T19:59:55.077Z,29.73
2023-12-14T20:04:51.488Z,35.33
2023-12-14T20:09:57.494Z,34.03
2023-12-14T20:14:57.584Z,28.88
2023-12-14T20:19:54.040Z,36.35
2023-12-14T20:24:50.836Z,34.05
2023-12-14T20:29:47.210Z,31.95
2023-12-14T20:34:43.718Z,31.17
2023-12-14T20:39:40.107Z,30.70
2023-12-14T20:44:36.502Z,34.15
2023-12-14T20:49:32.894Z,33.17
2023-12-14T20:54:29.333Z,33.95
2023-12-14T20:59:25.862Z,34.75
2023-12-14T21:04:22.291Z,32.55
2023-12-14T21:09:19.954Z,36.13
2023-12-14T21:14:17.222Z,37.42
2023-12-14T21:19:13.884Z,39.15
2023-12-14T21:24:10.382Z,33.85
2023-12-14T21:29:07.497Z,35.50
2023-12-14T21:34:04.192Z,31.20
2023-12-14T21:39:00.650Z,37.03
2023-12-14T21:43:57.032Z,40.67
2023-12-14T21:48:53.919Z,35.88
2023-12-14T21:53:51.681Z,39.75
2023-12-14T21:58:48.120Z,34.03
2023-12-14T22:03:44.545Z,38.85
2023-12-14T22:08:41.046Z,36.22
2023-12-14T22:13:37.493Z,37.17
2023-12-14T22:18:33.996Z,35.25
2023-12-14T22:23:30.568Z,36.10
2023-12-14T22:28:26.988Z,37.53
2023-12-14T22:33:23.457Z,37.78
2023-12-14T22:38:20.493Z,36.22
2023-12-14T22:43:17.810Z,39.60
2023-12-14T22:48:15.539Z,37.67
2023-12-14T22:53:19.249Z,32.63
2023-12-14T22:58:20.292Z,27.70
2023-12-14T23:03:16.992Z,31.98
2023-12-14T23:08:13.490Z,27.40
2023-12-14T23:13:10.458Z,31.92
2023-12-14T23:18:07.049Z,28.42
2023-12-14T23:23:03.564Z,28.42
2023-12-14T23:28:00.013Z,30.15
2023-12-14T23:32:56.408Z,30.90
2023-12-14T23:37:52.848Z,30.27
2023-12-14T23:42:49.294Z,33.60
2023-12-14T23:47:45.824Z,28.33
2023-12-14T23:52:42.482Z,30.92
2023-12-14T23:57:39.212Z,30.13
